Terminal Aerodrome Forecast
Issued by NWS Hastings, NE

Home | Current Version | Previous Version | Text Only | Print | Product List | Glossary On
Versions: 1 2 3 4 5 6 7 8 9 10 11 12 13
000
FTUS43 KGID 300544
TAFGRI
TAF
KGRI 300544Z 3006/3106 VRB05KT P6SM SKC
     FM301300 30009KT P6SM FEW090
     FM301800 32011G17KT P6SM FEW080
     FM310000 VRB06KT P6SM SKC=

USA.gov is the U.S. government's official web portal to all federal, state and local government web resources and services.